Time;durP1;ratioP1;P1;durP2;ratioP2;P2;SDS_P1;SDS_P2;PMS_P1;PMS_P2;Temp;Humidity;BMP_temperature;BMP_pressure;BME280_temperature;BME280_humidity;BME280_pressure;Samples;Min_cycle;Max_cycle;Signal;HPM_P1;HPM_P2
2022/11/05 00:10:06;;;;;;;;;;;19.80;68.80;;;;;;5057999;28;19924;-63
2022/11/05 00:18:10;;;;;;;;;;;19.80;68.80;;;;;;5035789;28;20462;-62
2022/11/05 00:20:35;;;;;;;;;;;19.70;68.80;;;;;;5072400;28;19971;-62
2022/11/05 00:26:11;;;;;;;;;;;19.70;68.70;;;;;;5072627;28;20322;-62
2022/11/05 00:28:39;;;;;;;;;;;19.70;68.70;;;;;;5051496;28;20033;-63
2022/11/05 00:31:08;;;;;;;;;;;19.70;68.70;;;;;;5072693;28;19925;-62
2022/11/05 00:33:34;;;;;;;;;;;19.70;68.70;;;;;;5054616;28;19920;-62
2022/11/05 00:36:01;;;;;;;;;;;19.70;68.80;;;;;;5072393;28;20256;-62
2022/11/05 00:38:26;;;;;;;;;;;19.70;68.70;;;;;;5073029;28;19925;-63
2022/11/05 00:40:52;;;;;;;;;;;19.70;68.70;;;;;;5037257;28;19978;-63
2022/11/05 00:46:04;;;;;;;;;;;19.70;68.80;;;;;;5072572;28;20380;-62
2022/11/05 00:51:13;;;;;;;;;;;19.60;68.70;;;;;;5072721;28;19928;-63
2022/11/05 00:53:39;;;;;;;;;;;19.60;68.70;;;;;;5072420;28;19933;-63
2022/11/05 00:56:04;;;;;;;;;;;19.60;68.70;;;;;;5071631;28;19927;-63
2022/11/05 00:58:30;;;;;;;;;;;19.60;68.70;;;;;;5071822;28;19994;-63
2022/11/05 01:00:56;;;;;;;;;;;19.60;68.70;;;;;;5053970;28;19932;-61
2022/11/05 01:03:22;;;;;;;;;;;19.60;68.70;;;;;;5071718;28;19981;-61
2022/11/05 01:05:52;;;;;;;;;;;19.60;68.60;;;;;;5053898;28;19925;-62
2022/11/05 01:08:18;;;;;;;;;;;19.60;68.60;;;;;;5071450;28;20383;-62
2022/11/05 01:10:44;;;;;;;;;;;19.60;68.60;;;;;;5053712;28;19957;-62
2022/11/05 01:13:10;;;;;;;;;;;19.60;68.60;;;;;;5072604;28;19975;-62
2022/11/05 01:15:35;;;;;;;;;;;19.60;68.60;;;;;;5053311;28;19972;-63
2022/11/05 01:18:01;;;;;;;;;;;19.60;68.60;;;;;;5054360;28;19977;-62
2022/11/05 01:20:26;;;;;;;;;;;19.60;68.60;;;;;;5054738;28;19932;-62
2022/11/05 01:22:52;;;;;;;;;;;19.50;68.50;;;;;;5071390;28;19933;-62
2022/11/05 01:25:17;;;;;;;;;;;19.50;68.50;;;;;;5072352;28;19925;-62
2022/11/05 01:27:43;;;;;;;;;;;19.50;68.60;;;;;;5072195;28;19924;-63
2022/11/05 01:30:08;;;;;;;;;;;19.50;68.60;;;;;;5071677;28;20007;-62
2022/11/05 01:32:35;;;;;;;;;;;19.50;68.50;;;;;;5072394;28;20415;-62
2022/11/05 01:35:00;;;;;;;;;;;19.50;68.60;;;;;;5071896;28;19924;-62
2022/11/05 01:37:26;;;;;;;;;;;19.50;68.60;;;;;;5053328;28;19931;-62
2022/11/05 01:39:51;;;;;;;;;;;19.50;68.60;;;;;;5053847;28;19966;-63
2022/11/05 01:42:20;;;;;;;;;;;19.50;68.60;;;;;;5072330;28;19967;-63
2022/11/05 01:44:49;;;;;;;;;;;19.50;68.50;;;;;;5070543;28;19924;-63
2022/11/05 01:47:34;;;;;;;;;;;19.50;68.60;;;;;;5054174;28;19925;-63
2022/11/05 01:50:01;;;;;;;;;;;19.50;68.60;;;;;;5071637;28;20370;-63
2022/11/05 01:52:27;;;;;;;;;;;19.50;68.60;;;;;;5071420;28;19943;-63
2022/11/05 01:54:53;;;;;;;;;;;19.40;68.50;;;;;;5071825;28;19975;-63
2022/11/05 01:57:19;;;;;;;;;;;19.40;68.50;;;;;;5072280;28;19924;-63
2022/11/05 01:59:51;;;;;;;;;;;19.40;68.40;;;;;;5073403;28;19921;-63
2022/11/05 02:02:16;;;;;;;;;;;19.40;68.50;;;;;;5057642;28;20363;-63
2022/11/05 02:04:43;;;;;;;;;;;19.40;68.50;;;;;;5057613;28;19982;-63
2022/11/05 02:07:08;;;;;;;;;;;19.40;68.50;;;;;;5056879;28;19925;-63
2022/11/05 02:09:38;;;;;;;;;;;19.40;68.50;;;;;;5057531;28;19997;-63
2022/11/05 02:12:05;;;;;;;;;;;19.40;68.50;;;;;;5056631;28;19924;-63
2022/11/05 02:14:31;;;;;;;;;;;19.40;68.40;;;;;;5057320;28;20011;-63
2022/11/05 02:17:05;;;;;;;;;;;19.40;68.50;;;;;;5057308;28;20019;-63
2022/11/05 02:19:49;;;;;;;;;;;19.40;68.40;;;;;;5074666;28;19944;-61
2022/11/05 02:22:33;;;;;;;;;;;19.40;68.50;;;;;;5057282;28;20295;-62
2022/11/05 02:25:00;;;;;;;;;;;19.40;68.40;;;;;;5056898;28;19924;-61
2022/11/05 02:27:31;;;;;;;;;;;19.40;68.40;;;;;;5074259;28;20019;-62
2022/11/05 02:30:02;;;;;;;;;;;19.40;68.40;;;;;;5056911;28;19925;-61
2022/11/05 02:32:47;;;;;;;;;;;19.40;68.40;;;;;;5057288;28;19924;-62
2022/11/05 02:35:15;;;;;;;;;;;19.40;68.40;;;;;;5039847;28;19924;-62
2022/11/05 02:37:44;;;;;;;;;;;19.30;68.40;;;;;;5074810;28;20453;-61
2022/11/05 02:40:18;;;;;;;;;;;19.40;68.40;;;;;;5074027;28;19975;-63
2022/11/05 02:42:49;;;;;;;;;;;19.30;68.30;;;;;;5056555;28;20256;-63
2022/11/05 02:45:24;;;;;;;;;;;19.30;68.30;;;;;;5074881;28;19928;-62
2022/11/05 02:47:49;;;;;;;;;;;19.30;68.30;;;;;;5074087;28;19990;-62
2022/11/05 02:50:18;;;;;;;;;;;19.30;68.30;;;;;;5074742;28;19924;-63
2022/11/05 02:52:57;;;;;;;;;;;19.30;68.30;;;;;;5057043;28;19924;-63
2022/11/05 02:55:22;;;;;;;;;;;19.30;68.30;;;;;;5056173;28;20035;-62
2022/11/05 02:57:48;;;;;;;;;;;19.30;68.20;;;;;;5074362;28;20419;-62
2022/11/05 03:00:33;;;;;;;;;;;19.30;68.20;;;;;;5056313;28;19920;-62
2022/11/05 03:02:59;;;;;;;;;;;19.30;68.20;;;;;;5073024;28;20295;-63
2022/11/05 03:05:29;;;;;;;;;;;19.30;68.20;;;;;;5074263;28;20415;-62
2022/11/05 03:07:55;;;;;;;;;;;19.30;68.20;;;;;;5056776;28;20383;-63
2022/11/05 03:10:26;;;;;;;;;;;19.30;68.20;;;;;;5055512;28;20016;-63
2022/11/05 03:13:02;;;;;;;;;;;19.30;68.10;;;;;;5073825;28;20379;-63
2022/11/05 03:15:34;;;;;;;;;;;19.30;68.10;;;;;;5055422;28;20761;-63
2022/11/05 03:18:26;;;;;;;;;;;19.30;68.10;;;;;;5056011;28;19935;-62
2022/11/05 03:21:10;;;;;;;;;;;19.30;68.10;;;;;;5070606;28;19925;-63
2022/11/05 03:23:36;;;;;;;;;;;19.20;68.00;;;;;;5073203;28;20299;-62
2022/11/05 03:26:01;;;;;;;;;;;19.20;68.00;;;;;;5073696;28;20007;-62
2022/11/05 03:28:27;;;;;;;;;;;19.20;68.00;;;;;;5074530;28;20060;-62
2022/11/05 03:30:53;;;;;;;;;;;19.20;67.90;;;;;;5038657;28;19925;-63
2022/11/05 03:33:28;;;;;;;;;;;19.20;68.00;;;;;;5055765;28;20329;-62
2022/11/05 03:35:55;;;;;;;;;;;19.20;68.60;;;;;;5055928;28;19932;-62
2022/11/05 03:38:21;;;;;;;;;;;19.20;67.90;;;;;;5073153;28;20000;-62
2022/11/05 03:40:47;;;;;;;;;;;19.20;67.90;;;;;;5055613;28;19928;-62
2022/11/05 03:43:13;;;;;;;;;;;19.20;67.90;;;;;;5055977;28;19925;-63
2022/11/05 03:45:50;;;;;;;;;;;19.20;68.00;;;;;;5072810;28;20453;-62
2022/11/05 03:48:16;;;;;;;;;;;19.20;68.00;;;;;;5056040;28;19928;-62
2022/11/05 03:50:47;;;;;;;;;;;19.20;68.00;;;;;;5054892;28;20371;-62
2022/11/05 03:53:17;;;;;;;;;;;19.20;68.00;;;;;;5073794;28;19928;-63
2022/11/05 03:55:49;;;;;;;;;;;19.20;68.00;;;;;;5055365;28;19926;-62
2022/11/05 03:58:14;;;;;;;;;;;19.20;68.60;;;;;;5054877;28;20019;-63
2022/11/05 04:00:40;;;;;;;;;;;19.20;68.00;;;;;;5055665;28;20011;-62
2022/11/05 04:03:05;;;;;;;;;;;19.20;68.00;;;;;;5038764;28;19993;-62
2022/11/05 04:05:31;;;;;;;;;;;19.20;67.90;;;;;;5072720;28;19928;-62
2022/11/05 04:13:24;;;;;;;;;;;19.20;68.00;;;;;;5054659;28;20388;-63
2022/11/05 04:18:37;;;;;;;;;;;19.20;67.90;;;;;;5072430;28;19960;-63
2022/11/05 04:26:32;;;;;;;;;;;19.20;67.80;;;;;;5072143;28;20387;-62
2022/11/05 04:31:41;;;;;;;;;;;19.30;67.80;;;;;;5054815;28;19982;-62
2022/11/05 04:34:07;;;;;;;;;;;19.30;67.80;;;;;;5071912;28;19967;-62
2022/11/05 04:36:32;;;;;;;;;;;19.30;67.80;;;;;;5072651;28;19977;-62
2022/11/05 04:38:58;;;;;;;;;;;19.30;67.70;;;;;;5072750;28;20365;-62
2022/11/05 04:41:23;;;;;;;;;;;19.30;67.70;;;;;;5072201;28;20370;-62
2022/11/05 04:43:49;;;;;;;;;;;19.30;67.70;;;;;;5072317;28;19932;-62
2022/11/05 04:46:14;;;;;;;;;;;19.40;67.70;;;;;;5054708;28;20339;-62
2022/11/05 04:48:40;;;;;;;;;;;19.40;67.70;;;;;;5053816;28;19928;-62
2022/11/05 04:51:05;;;;;;;;;;;19.40;67.60;;;;;;5071709;28;20419;-62
2022/11/05 04:53:31;;;;;;;;;;;19.40;67.60;;;;;;5071706;28;19920;-62
2022/11/05 04:56:14;;;;;;;;;;;19.40;67.50;;;;;;5053064;28;20023;-63
2022/11/05 04:58:39;;;;;;;;;;;19.40;67.50;;;;;;5071158;28;19926;-63
2022/11/05 05:01:05;;;;;;;;;;;19.50;67.40;;;;;;5064306;28;19924;-62
2022/11/05 05:03:31;;;;;;;;;;;19.50;67.40;;;;;;5051990;28;19927;-63
2022/11/05 05:05:59;;;;;;;;;;;19.50;67.40;;;;;;5051559;28;19947;-63
2022/11/05 05:08:24;;;;;;;;;;;19.50;67.40;;;;;;5051605;28;20423;-63
2022/11/05 05:10:50;;;;;;;;;;;19.50;67.40;;;;;;5052105;28;19929;-63
2022/11/05 05:13:15;;;;;;;;;;;19.50;67.40;;;;;;5042883;28;19924;-63
2022/11/05 05:15:41;;;;;;;;;;;19.60;67.50;;;;;;5053372;28;19925;-64
2022/11/05 05:18:07;;;;;;;;;;;19.60;67.50;;;;;;5071738;28;19928;-64
2022/11/05 05:23:17;;;;;;;;;;;19.60;67.60;;;;;;5071876;28;20369;-63
2022/11/05 05:25:42;;;;;;;;;;;19.60;67.60;;;;;;5053929;28;19970;-63
2022/11/05 05:28:08;;;;;;;;;;;19.60;67.50;;;;;;5054177;28;19930;-63
2022/11/05 05:30:33;;;;;;;;;;;19.60;67.50;;;;;;5071192;28;19921;-64
2022/11/05 05:33:02;;;;;;;;;;;19.70;67.50;;;;;;5071924;28;20018;-64
2022/11/05 05:35:28;;;;;;;;;;;19.70;67.50;;;;;;5076278;28;20364;-64
2022/11/05 05:37:54;;;;;;;;;;;19.70;67.50;;;;;;5075299;28;19924;-65
2022/11/05 05:40:19;;;;;;;;;;;19.70;67.50;;;;;;5076308;28;20318;-64
2022/11/05 05:42:45;;;;;;;;;;;19.70;67.50;;;;;;5057583;28;19933;-64
2022/11/05 05:45:11;;;;;;;;;;;19.70;67.60;;;;;;5056986;28;19924;-64
2022/11/05 05:47:36;;;;;;;;;;;19.70;67.50;;;;;;5065655;28;19926;-64
2022/11/05 05:50:02;;;;;;;;;;;19.70;67.60;;;;;;5054955;28;20271;-64
2022/11/05 05:52:27;;;;;;;;;;;19.80;67.70;;;;;;5055932;28;20292;-64
2022/11/05 05:54:53;;;;;;;;;;;19.70;67.60;;;;;;5055579;28;19929;-61
2022/11/05 05:57:18;;;;;;;;;;;19.80;67.70;;;;;;5054725;28;19928;-62
2022/11/05 05:59:44;;;;;;;;;;;19.80;67.70;;;;;;5053957;28;20307;-63
2022/11/05 06:02:11;;;;;;;;;;;19.80;67.60;;;;;;5055931;28;19978;-62
2022/11/05 06:04:36;;;;;;;;;;;19.80;67.60;;;;;;5055532;28;19925;-62
2022/11/05 06:07:02;;;;;;;;;;;19.80;67.60;;;;;;5055648;28;19929;-62
2022/11/05 06:09:27;;;;;;;;;;;19.80;67.60;;;;;;5055952;28;20331;-63
2022/11/05 06:11:53;;;;;;;;;;;19.80;67.40;;;;;;5054788;28;20012;-63
2022/11/05 06:14:18;;;;;;;;;;;19.80;67.30;;;;;;5037947;28;19947;-63
2022/11/05 06:16:44;;;;;;;;;;;19.80;67.30;;;;;;5055520;28;19947;-64
2022/11/05 06:19:09;;;;;;;;;;;19.80;67.20;;;;;;5055188;28;20113;-63
2022/11/05 06:21:35;;;;;;;;;;;19.80;67.30;;;;;;5055891;28;20295;-64
2022/11/05 06:24:03;;;;;;;;;;;19.80;67.30;;;;;;5055298;28;19933;-65
2022/11/05 06:26:29;;;;;;;;;;;19.80;67.40;;;;;;5036799;28;20023;-65
2022/11/05 06:28:54;;;;;;;;;;;19.90;67.60;;;;;;5055227;28;20012;-65
2022/11/05 06:31:20;;;;;;;;;;;19.80;67.50;;;;;;5055496;28;19932;-65
2022/11/05 06:33:46;;;;;;;;;;;19.90;67.60;;;;;;5054434;28;19932;-65
2022/11/05 06:36:13;;;;;;;;;;;19.80;67.60;;;;;;5055698;28;19978;-64
2022/11/05 06:38:38;;;;;;;;;;;19.90;67.60;;;;;;5055009;28;20399;-63
2022/11/05 06:41:04;;;;;;;;;;;19.90;67.60;;;;;;5053980;28;19932;-64
2022/11/05 06:43:29;;;;;;;;;;;19.90;67.50;;;;;;5055083;28;19925;-64
2022/11/05 06:45:55;;;;;;;;;;;19.90;67.60;;;;;;5036010;28;19936;-63
2022/11/05 06:48:20;;;;;;;;;;;19.90;67.60;;;;;;5054439;28;20438;-64
2022/11/05 06:50:46;;;;;;;;;;;19.90;67.60;;;;;;5055185;28;19925;-64
2022/11/05 06:53:11;;;;;;;;;;;19.90;67.60;;;;;;5054367;28;19925;-66
2022/11/05 06:55:37;;;;;;;;;;;19.90;67.60;;;;;;5037598;28;19925;-64
2022/11/05 06:58:03;;;;;;;;;;;19.90;67.60;;;;;;5037166;28;20359;-64
2022/11/05 07:00:28;;;;;;;;;;;19.90;67.60;;;;;;5054057;28;20019;-64
2022/11/05 07:02:57;;;;;;;;;;;19.90;67.70;;;;;;5036790;28;19925;-64
2022/11/05 07:05:23;;;;;;;;;;;19.90;67.70;;;;;;5054808;28;19925;-62
2022/11/05 07:07:48;;;;;;;;;;;19.90;67.70;;;;;;5036317;28;19931;-64
2022/11/05 07:10:15;;;;;;;;;;;19.90;67.80;;;;;;5054824;28;20294;-63
2022/11/05 07:12:40;;;;;;;;;;;20.00;67.80;;;;;;5054695;28;19932;-64
2022/11/05 07:15:06;;;;;;;;;;;20.00;67.80;;;;;;5035800;28;19925;-63
2022/11/05 07:17:32;;;;;;;;;;;20.00;67.90;;;;;;5036876;28;20308;-65
2022/11/05 07:19:57;;;;;;;;;;;20.00;68.60;;;;;;5036636;28;20368;-65
2022/11/05 07:22:23;;;;;;;;;;;20.00;67.80;;;;;;5054015;28;19929;-65
2022/11/05 07:24:49;;;;;;;;;;;20.00;67.90;;;;;;5054407;28;20305;-64
2022/11/05 07:27:14;;;;;;;;;;;20.00;67.70;;;;;;5054405;28;19958;-64
2022/11/05 07:29:40;;;;;;;;;;;20.00;67.70;;;;;;5053908;28;19924;-64
2022/11/05 07:32:05;;;;;;;;;;;20.00;67.70;;;;;;5054071;28;19925;-63
2022/11/05 07:34:31;;;;;;;;;;;20.00;67.70;;;;;;5036540;28;19932;-64
2022/11/05 07:36:56;;;;;;;;;;;20.00;67.60;;;;;;5053511;28;19939;-65
2022/11/05 07:39:22;;;;;;;;;;;20.00;67.70;;;;;;5054304;28;19929;-65
2022/11/05 07:41:47;;;;;;;;;;;20.00;67.70;;;;;;5053914;28;19959;-64
2022/11/05 07:44:13;;;;;;;;;;;20.00;67.70;;;;;;5053276;28;20003;-65
2022/11/05 07:46:41;;;;;;;;;;;20.00;67.70;;;;;;5053981;28;20309;-64
2022/11/05 07:49:07;;;;;;;;;;;20.00;67.60;;;;;;5053678;28;20339;-65
2022/11/05 07:51:35;;;;;;;;;;;20.00;67.70;;;;;;5035445;28;20376;-64
2022/11/05 07:54:01;;;;;;;;;;;20.10;67.70;;;;;;5053900;28;19928;-64
2022/11/05 07:56:26;;;;;;;;;;;20.10;67.90;;;;;;5053320;28;20391;-63
2022/11/05 07:58:52;;;;;;;;;;;20.10;67.70;;;;;;5053493;28;19925;-64
2022/11/05 08:01:17;;;;;;;;;;;20.10;67.70;;;;;;5035900;28;19932;-64
2022/11/05 08:03:43;;;;;;;;;;;20.10;67.70;;;;;;5052775;28;19946;-64
2022/11/05 08:06:08;;;;;;;;;;;20.10;67.70;;;;;;5053723;28;19925;-64
2022/11/05 08:08:34;;;;;;;;;;;20.10;67.70;;;;;;5053737;28;19928;-64
2022/11/05 08:11:06;;;;;;;;;;;20.10;67.70;;;;;;5052487;28;19947;-65
2022/11/05 08:13:32;;;;;;;;;;;20.20;67.50;;;;;;5035734;28;19921;-65
2022/11/05 08:15:57;;;;;;;;;;;20.20;67.50;;;;;;5035367;28;19932;-64
2022/11/05 08:18:30;;;;;;;;;;;20.20;67.50;;;;;;5052893;28;19925;-64
2022/11/05 08:20:55;;;;;;;;;;;20.20;67.20;;;;;;5052409;28;19959;-65
2022/11/05 08:23:21;;;;;;;;;;;20.20;67.20;;;;;;5053580;28;20026;-65
2022/11/05 08:25:46;;;;;;;;;;;20.20;67.30;;;;;;5052229;28;19928;-65
2022/11/05 08:28:11;;;;;;;;;;;20.20;67.20;;;;;;5053687;28;19925;-65
2022/11/05 08:30:37;;;;;;;;;;;20.30;67.30;;;;;;5053463;28;20354;-65
2022/11/05 08:33:06;;;;;;;;;;;20.30;67.30;;;;;;5052447;28;19936;-63
2022/11/05 08:35:32;;;;;;;;;;;20.30;67.30;;;;;;5035638;28;20032;-64
2022/11/05 08:37:59;;;;;;;;;;;20.30;67.00;;;;;;5052645;28;20419;-64
2022/11/05 08:40:25;;;;;;;;;;;20.30;67.00;;;;;;5052497;28;20019;-64
2022/11/05 08:42:50;;;;;;;;;;;20.30;67.10;;;;;;5052537;28;20012;-64
2022/11/05 08:45:16;;;;;;;;;;;20.30;67.10;;;;;;5052752;28;20016;-64
2022/11/05 08:47:41;;;;;;;;;;;20.30;67.10;;;;;;5052405;28;20379;-64
2022/11/05 08:50:07;;;;;;;;;;;20.30;67.10;;;;;;5052994;28;19925;-65
2022/11/05 08:52:32;;;;;;;;;;;20.30;67.10;;;;;;5035203;28;19925;-65
2022/11/05 08:54:58;;;;;;;;;;;20.30;67.20;;;;;;5051865;28;19928;-65
2022/11/05 08:57:23;;;;;;;;;;;20.30;67.20;;;;;;5035022;28;20372;-64
2022/11/05 08:59:49;;;;;;;;;;;20.30;67.40;;;;;;5034061;28;19964;-65
2022/11/05 09:02:14;;;;;;;;;;;20.30;67.50;;;;;;5052897;28;20023;-65
2022/11/05 09:04:40;;;;;;;;;;;20.30;67.50;;;;;;5052563;28;19929;-65
2022/11/05 09:07:05;;;;;;;;;;;20.30;67.70;;;;;;5051622;28;19925;-66
2022/11/05 09:09:31;;;;;;;;;;;20.40;67.70;;;;;;5052244;28;20015;-65
2022/11/05 09:11:57;;;;;;;;;;;20.40;67.70;;;;;;5052535;28;20025;-65
2022/11/05 09:14:25;;;;;;;;;;;20.40;67.70;;;;;;5033961;28;19924;-65
2022/11/05 09:16:51;;;;;;;;;;;20.40;67.50;;;;;;5052341;28;20007;-65
2022/11/05 09:19:16;;;;;;;;;;;20.40;67.60;;;;;;5052378;28;20010;-66
2022/11/05 09:21:42;;;;;;;;;;;20.40;67.60;;;;;;5052108;28;20070;-64
2022/11/05 09:24:07;;;;;;;;;;;20.40;67.70;;;;;;5052837;28;19929;-64
2022/11/05 09:26:33;;;;;;;;;;;20.40;67.70;;;;;;5052748;28;19932;-65
2022/11/05 09:28:58;;;;;;;;;;;20.40;67.70;;;;;;5051429;28;19928;-65
2022/11/05 09:31:24;;;;;;;;;;;20.40;67.70;;;;;;5052493;28;20388;-66
2022/11/05 09:33:49;;;;;;;;;;;20.40;67.50;;;;;;5052302;28;19925;-65
2022/11/05 09:36:15;;;;;;;;;;;20.40;67.60;;;;;;5052117;28;19934;-65
2022/11/05 09:38:40;;;;;;;;;;;20.40;67.60;;;;;;5034554;28;20027;-65
2022/11/05 09:41:18;;;;;;;;;;;20.40;67.50;;;;;;5034234;28;19951;-64
2022/11/05 09:43:48;;;;;;;;;;;20.40;67.50;;;;;;5050202;28;19929;-65
2022/11/05 09:46:23;;;;;;;;;;;20.40;67.60;;;;;;5051038;28;19932;-65
2022/11/05 09:48:50;;;;;;;;;;;20.40;67.50;;;;;;5052325;28;20007;-64
2022/11/05 09:51:16;;;;;;;;;;;20.40;67.60;;;;;;5051610;28;19987;-65
2022/11/05 09:53:41;;;;;;;;;;;20.40;67.60;;;;;;5051207;28;19924;-66
2022/11/05 09:56:26;;;;;;;;;;;20.40;67.70;;;;;;5050064;28;19939;-65
2022/11/05 09:58:57;;;;;;;;;;;20.40;67.70;;;;;;5052188;28;19928;-66
2022/11/05 10:01:24;;;;;;;;;;;20.30;67.60;;;;;;5052139;28;19924;-66
2022/11/05 10:03:51;;;;;;;;;;;20.30;67.60;;;;;;5051282;28;19972;-66
2022/11/05 10:06:20;;;;;;;;;;;20.30;67.60;;;;;;5034024;28;19924;-65
2022/11/05 10:08:47;;;;;;;;;;;20.30;67.60;;;;;;5050385;28;19925;-65
2022/11/05 10:11:15;;;;;;;;;;;20.30;67.60;;;;;;5033940;28;20356;-64
2022/11/05 10:13:47;;;;;;;;;;;20.30;67.60;;;;;;5052233;28;19967;-64
2022/11/05 10:16:21;;;;;;;;;;;20.30;67.60;;;;;;5033729;28;19936;-63
2022/11/05 10:18:51;;;;;;;;;;;20.30;67.60;;;;;;5032727;28;19931;-65
2022/11/05 10:21:17;;;;;;;;;;;20.30;67.60;;;;;;5052054;28;19925;-69
2022/11/05 10:23:43;;;;;;;;;;;20.30;67.60;;;;;;5054308;28;19932;-64
2022/11/05 10:26:18;;;;;;;;;;;20.20;67.60;;;;;;5054913;28;20372;-64
2022/11/05 10:28:44;;;;;;;;;;;20.20;67.70;;;;;;5037507;28;19925;-64
2022/11/05 10:31:13;;;;;;;;;;;20.20;67.50;;;;;;5055467;28;19932;-64
2022/11/05 10:33:40;;;;;;;;;;;20.20;67.40;;;;;;5037645;28;20264;-64
2022/11/05 10:36:08;;;;;;;;;;;20.20;67.40;;;;;;5060855;28;20019;-63
2022/11/05 10:38:33;;;;;;;;;;;20.20;67.50;;;;;;5040036;28;19928;-63
2022/11/05 10:41:05;;;;;;;;;;;20.20;67.70;;;;;;5074199;28;19925;-64
2022/11/05 10:43:34;;;;;;;;;;;20.20;67.80;;;;;;5072575;28;19970;-64
2022/11/05 10:46:02;;;;;;;;;;;20.10;67.70;;;;;;5074266;28;19931;-64
2022/11/05 10:48:27;;;;;;;;;;;20.20;67.80;;;;;;5075315;28;20009;-65
2022/11/05 10:50:53;;;;;;;;;;;20.20;67.60;;;;;;5074907;28;19971;-65
2022/11/05 10:53:22;;;;;;;;;;;20.20;67.50;;;;;;5074398;28;19931;-64
2022/11/05 10:55:49;;;;;;;;;;;20.20;67.50;;;;;;5056858;28;19932;-64
2022/11/05 10:58:21;;;;;;;;;;;20.20;67.50;;;;;;5057404;28;20015;-65
2022/11/05 11:00:50;;;;;;;;;;;20.20;67.50;;;;;;5074011;28;19932;-65
2022/11/05 11:03:34;;;;;;;;;;;20.20;67.50;;;;;;5074928;28;20287;-65
2022/11/05 11:06:00;;;;;;;;;;;20.10;67.40;;;;;;5073726;28;20295;-64
2022/11/05 11:08:25;;;;;;;;;;;20.10;67.30;;;;;;5055841;28;19931;-63
2022/11/05 11:10:51;;;;;;;;;;;20.10;67.30;;;;;;5056039;28;19928;-63
2022/11/05 11:13:24;;;;;;;;;;;20.10;68.10;;;;;;5074650;28;19924;-64
2022/11/05 11:15:50;;;;;;;;;;;20.10;67.70;;;;;;5070861;28;19925;-62
2022/11/05 11:18:26;;;;;;;;;;;20.10;67.60;;;;;;5074352;28;19928;-62
2022/11/05 11:20:51;;;;;;;;;;;20.10;67.70;;;;;;5053449;28;19936;-62
2022/11/05 11:23:17;;;;;;;;;;;20.10;67.70;;;;;;5081000;28;19932;-64
2022/11/05 11:25:55;;;;;;;;;;;20.10;67.60;;;;;;5074507;28;19970;-64
2022/11/05 11:28:29;;;;;;;;;;;20.10;67.60;;;;;;5056403;28;19925;-65
2022/11/05 11:31:10;;;;;;;;;;;20.10;67.40;;;;;;5073594;28;19947;-64
2022/11/05 11:33:35;;;;;;;;;;;20.10;67.40;;;;;;5039719;28;19931;-64
2022/11/05 11:36:01;;;;;;;;;;;20.00;67.30;;;;;;5073288;28;19924;-64
2022/11/05 11:38:30;;;;;;;;;;;20.00;67.40;;;;;;5056455;28;19939;-65
2022/11/05 11:40:59;;;;;;;;;;;20.00;67.40;;;;;;5056279;28;20015;-65
2022/11/05 11:43:28;;;;;;;;;;;20.00;67.40;;;;;;5073221;28;19928;-64
2022/11/05 11:45:55;;;;;;;;;;;20.00;67.40;;;;;;5073586;28;19964;-65
2022/11/05 11:48:25;;;;;;;;;;;20.00;67.40;;;;;;5055526;28;20386;-64
2022/11/05 11:50:51;;;;;;;;;;;20.00;67.50;;;;;;5055130;28;19929;-65
2022/11/05 11:53:20;;;;;;;;;;;20.00;67.40;;;;;;5055900;28;20280;-64
2022/11/05 11:55:54;;;;;;;;;;;20.00;67.40;;;;;;5088129;28;19924;-64
2022/11/05 11:58:34;;;;;;;;;;;20.00;67.40;;;;;;5089736;28;19932;-63
2022/11/05 12:01:08;;;;;;;;;;;20.00;67.30;;;;;;5055566;28;19956;-64
2022/11/05 12:03:42;;;;;;;;;;;20.00;67.20;;;;;;5038561;28;20380;-64
2022/11/05 12:06:27;;;;;;;;;;;20.00;67.30;;;;;;5073690;28;19972;-64
2022/11/05 12:09:11;;;;;;;;;;;20.00;67.30;;;;;;5073326;28;19925;-64
2022/11/05 12:11:57;;;;;;;;;;;20.00;67.30;;;;;;5073031;28;19925;-64
2022/11/05 12:14:27;;;;;;;;;;;20.00;67.40;;;;;;5059104;28;20284;-64
2022/11/05 12:17:11;;;;;;;;;;;20.00;67.40;;;;;;5054631;28;19985;-65
2022/11/05 12:19:59;;;;;;;;;;;19.90;67.30;;;;;;5073455;28;20276;-64
2022/11/05 12:22:43;;;;;;;;;;;19.90;67.30;;;;;;5039315;28;20264;-64
2022/11/05 12:25:35;;;;;;;;;;;19.90;67.40;;;;;;5054564;28;19925;-64
2022/11/05 12:28:07;;;;;;;;;;;19.90;67.40;;;;;;5068977;28;19924;-63
2022/11/05 12:30:38;;;;;;;;;;;19.90;67.40;;;;;;5073102;28;19925;-65
2022/11/05 12:33:13;;;;;;;;;;;19.90;67.40;;;;;;5072410;28;19931;-62
2022/11/05 12:35:40;;;;;;;;;;;19.90;66.50;;;;;;5055404;28;19924;-64
2022/11/05 12:38:15;;;;;;;;;;;19.90;66.50;;;;;;5054444;28;19977;-64
2022/11/05 12:40:40;;;;;;;;;;;19.90;66.50;;;;;;5073448;28;19925;-64
2022/11/05 12:43:12;;;;;;;;;;;19.90;66.60;;;;;;5072194;28;19924;-64
2022/11/05 12:45:40;;;;;;;;;;;19.80;66.60;;;;;;5054619;28;20019;-64
2022/11/05 12:48:13;;;;;;;;;;;19.90;66.70;;;;;;5054924;28;19924;-64
2022/11/05 12:50:41;;;;;;;;;;;19.90;66.80;;;;;;5055422;28;19931;-64
2022/11/05 12:53:11;;;;;;;;;;;19.90;66.80;;;;;;5053963;28;20367;-63
2022/11/05 12:55:37;;;;;;;;;;;19.90;66.80;;;;;;5055177;28;19928;-64
2022/11/05 12:58:21;;;;;;;;;;;19.90;66.80;;;;;;5072790;28;19928;-66
2022/11/05 13:00:48;;;;;;;;;;;19.90;66.80;;;;;;5071636;28;19928;-64
2022/11/05 13:03:13;;;;;;;;;;;19.90;66.80;;;;;;5072901;28;19924;-64
2022/11/05 13:05:40;;;;;;;;;;;19.90;66.80;;;;;;5072778;28;20300;-64
2022/11/05 13:08:11;;;;;;;;;;;19.90;66.80;;;;;;5037618;28;19931;-64
2022/11/05 13:10:40;;;;;;;;;;;20.00;66.80;;;;;;5038636;28;20002;-64
2022/11/05 13:13:25;;;;;;;;;;;20.00;66.80;;;;;;5070815;28;19920;-64
2022/11/05 13:16:11;;;;;;;;;;;20.00;66.80;;;;;;5054484;28;20105;-64
2022/11/05 13:18:44;;;;;;;;;;;20.00;66.80;;;;;;5054138;28;19925;-64
2022/11/05 13:21:10;;;;;;;;;;;20.00;66.80;;;;;;5054121;28;20280;-63
2022/11/05 13:23:35;;;;;;;;;;;20.00;66.80;;;;;;5072575;28;19932;-64
2022/11/05 13:26:03;;;;;;;;;;;20.00;67.40;;;;;;5072509;28;19929;-64
2022/11/05 13:28:32;;;;;;;;;;;20.00;66.70;;;;;;5054157;28;19924;-65
2022/11/05 13:31:00;;;;;;;;;;;20.10;66.90;;;;;;5072317;28;19924;-64
2022/11/05 13:33:26;;;;;;;;;;;20.10;66.80;;;;;;5054810;28;19928;-64
2022/11/05 13:38:58;;;;;;;;;;;20.10;66.80;;;;;;5072358;28;20322;-64
2022/11/05 13:41:40;;;;;;;;;;;20.10;66.80;;;;;;5055961;28;20033;-64
2022/11/05 13:44:15;;;;;;;;;;;20.10;66.80;;;;;;5054028;28;19924;-64
2022/11/05 13:46:46;;;;;;;;;;;20.10;66.70;;;;;;5072507;28;19964;-64
2022/11/05 13:49:32;;;;;;;;;;;20.20;66.80;;;;;;5072066;28;19936;-64
2022/11/05 13:52:03;;;;;;;;;;;20.20;66.80;;;;;;5071440;28;19986;-64
2022/11/05 13:54:47;;;;;;;;;;;20.20;66.80;;;;;;5072966;28;19924;-64
2022/11/05 13:57:32;;;;;;;;;;;20.20;66.80;;;;;;5075365;28;20355;-64
2022/11/05 14:00:00;;;;;;;;;;;20.20;66.80;;;;;;5057921;28;19924;-65
2022/11/05 14:02:36;;;;;;;;;;;20.20;66.70;;;;;;5075228;28;19932;-64
2022/11/05 14:05:02;;;;;;;;;;;20.20;66.80;;;;;;5057728;28;20456;-65
2022/11/05 14:07:35;;;;;;;;;;;20.20;66.80;;;;;;5076202;28;19932;-65
2022/11/05 14:10:21;;;;;;;;;;;20.20;66.70;;;;;;5057402;28;19994;-64
2022/11/05 14:12:47;;;;;;;;;;;20.20;66.70;;;;;;5073142;28;19932;-65
2022/11/05 14:15:16;;;;;;;;;;;20.20;66.60;;;;;;5058235;28;19924;-65
2022/11/05 14:17:58;;;;;;;;;;;20.20;67.10;;;;;;5057045;28;20007;-64
2022/11/05 14:20:30;;;;;;;;;;;20.20;66.30;;;;;;5057995;28;19983;-65
2022/11/05 14:23:14;;;;;;;;;;;20.20;66.20;;;;;;5075209;28;19924;-63
2022/11/05 14:25:39;;;;;;;;;;;20.20;66.10;;;;;;5074913;28;19924;-63
2022/11/05 14:28:25;;;;;;;;;;;20.20;66.50;;;;;;5075517;28;19994;-64
2022/11/05 14:30:50;;;;;;;;;;;20.20;66.70;;;;;;5056616;28;20367;-65
2022/11/05 14:33:36;;;;;;;;;;;20.20;67.10;;;;;;5075659;28;19924;-65
2022/11/05 14:36:24;;;;;;;;;;;20.30;67.20;;;;;;5074673;28;19974;-65
2022/11/05 14:38:50;;;;;;;;;;;20.30;67.10;;;;;;5056566;28;19930;-65
2022/11/05 14:41:15;;;;;;;;;;;20.20;67.20;;;;;;5057828;28;19924;-64
2022/11/05 14:43:45;;;;;;;;;;;20.30;67.30;;;;;;5057386;28;20022;-64
2022/11/05 14:46:11;;;;;;;;;;;20.30;67.40;;;;;;5074247;28;19971;-65
2022/11/05 14:48:41;;;;;;;;;;;20.30;67.40;;;;;;5057347;28;19932;-65
2022/11/05 14:51:36;;;;;;;;;;;20.30;67.30;;;;;;5040312;28;20390;-65
2022/11/05 14:54:20;;;;;;;;;;;20.30;67.00;;;;;;5057126;28;19986;-63
2022/11/05 14:56:46;;;;;;;;;;;20.30;66.60;;;;;;5074906;28;19925;-63
2022/11/05 14:59:30;;;;;;;;;;;20.30;66.20;;;;;;5056454;28;19928;-64
2022/11/05 15:02:15;;;;;;;;;;;20.30;66.20;;;;;;5074787;28;20011;-63
2022/11/05 15:04:44;;;;;;;;;;;20.30;66.30;;;;;;5075298;28;19924;-63
2022/11/05 15:07:09;;;;;;;;;;;20.30;66.40;;;;;;5039287;28;19924;-61
2022/11/05 15:09:44;;;;;;;;;;;20.30;66.40;;;;;;5075027;28;19932;-65
2022/11/05 15:12:21;;;;;;;;;;;20.30;66.40;;;;;;5074540;28;19936;-63